sensor_id;sensor_type;location;lat;lon;timestamp;temperature;humidity
1083;DHT22;530;51.448;7.238;2024-03-07T00:00:10;7.90;99.90
1083;DHT22;530;51.448;7.238;2024-03-07T00:02:44;7.90;99.90
1083;DHT22;530;51.448;7.238;2024-03-07T00:05:11;7.90;99.90
1083;DHT22;530;51.448;7.238;2024-03-07T00:07:38;7.80;99.90
1083;DHT22;530;51.448;7.238;2024-03-07T00:10:05;7.80;99.90
1083;DHT22;530;51.448;7.238;2024-03-07T00:12:36;7.70;99.90
1083;DHT22;530;51.448;7.238;2024-03-07T00:15:12;7.70;99.90
1083;DHT22;530;51.448;7.238;2024-03-07T00:17:38;7.70;99.90
1083;DHT22;530;51.448;7.238;2024-03-07T00:20:05;7.60;99.90
1083;DHT22;530;51.448;7.238;2024-03-07T00:22:35;7.60;99.90
1083;DHT22;530;51.448;7.238;2024-03-07T00:25:01;7.60;99.90
1083;DHT22;530;51.448;7.238;2024-03-07T00:27:27;7.50;99.90
1083;DHT22;530;51.448;7.238;2024-03-07T00:29:52;7.50;99.90
1083;DHT22;530;51.448;7.238;2024-03-07T00:32:22;7.50;99.90
1083;DHT22;530;51.448;7.238;2024-03-07T00:34:49;7.40;99.90
1083;DHT22;530;51.448;7.238;2024-03-07T00:37:16;7.40;99.90
1083;DHT22;530;51.448;7.238;2024-03-07T00:39:42;7.40;99.90
1083;DHT22;530;51.448;7.238;2024-03-07T00:42:08;7.30;99.90
1083;DHT22;530;51.448;7.238;2024-03-07T00:44:34;7.30;99.90
1083;DHT22;530;51.448;7.238;2024-03-07T00:47:01;7.30;99.90
1083;DHT22;530;51.448;7.238;2024-03-07T00:49:30;7.30;99.90
1083;DHT22;530;51.448;7.238;2024-03-07T00:51:57;7.20;99.90
1083;DHT22;530;51.448;7.238;2024-03-07T00:54:23;7.20;99.90
1083;DHT22;530;51.448;7.238;2024-03-07T00:56:49;7.20;99.90
1083;DHT22;530;51.448;7.238;2024-03-07T00:59:17;7.20;99.90
1083;DHT22;530;51.448;7.238;2024-03-07T01:01:43;7.20;99.90
1083;DHT22;530;51.448;7.238;2024-03-07T01:04:09;7.10;99.90
1083;DHT22;530;51.448;7.238;2024-03-07T01:06:35;7.10;99.90
1083;DHT22;530;51.448;7.238;2024-03-07T01:09:04;7.10;99.90
1083;DHT22;530;51.448;7.238;2024-03-07T01:11:30;7.10;99.90
1083;DHT22;530;51.448;7.238;2024-03-07T01:13:56;7.10;99.90
1083;DHT22;530;51.448;7.238;2024-03-07T01:16:24;7.10;99.90
1083;DHT22;530;51.448;7.238;2024-03-07T01:18:51;7.10;99.90
1083;DHT22;530;51.448;7.238;2024-03-07T01:21:16;7.00;99.90
1083;DHT22;530;51.448;7.238;2024-03-07T01:23:42;7.00;99.90
1083;DHT22;530;51.448;7.238;2024-03-07T01:26:08;7.00;99.90
1083;DHT22;530;51.448;7.238;2024-03-07T01:28:34;7.00;99.90
1083;DHT22;530;51.448;7.238;2024-03-07T01:30:59;7.00;99.90
1083;DHT22;530;51.448;7.238;2024-03-07T01:33:26;7.00;99.90
1083;DHT22;530;51.448;7.238;2024-03-07T01:35:52;7.00;99.90
1083;DHT22;530;51.448;7.238;2024-03-07T01:38:18;7.00;99.90
1083;DHT22;530;51.448;7.238;2024-03-07T01:40:44;6.90;99.90
1083;DHT22;530;51.448;7.238;2024-03-07T01:43:10;7.00;99.90
1083;DHT22;530;51.448;7.238;2024-03-07T01:45:37;6.90;99.90
1083;DHT22;530;51.448;7.238;2024-03-07T01:48:09;6.90;99.90
1083;DHT22;530;51.448;7.238;2024-03-07T01:50:38;6.90;99.90
1083;DHT22;530;51.448;7.238;2024-03-07T01:53:08;6.80;99.90
1083;DHT22;530;51.448;7.238;2024-03-07T01:55:35;6.80;99.90
1083;DHT22;530;51.448;7.238;2024-03-07T01:58:03;6.80;99.90
1083;DHT22;530;51.448;7.238;2024-03-07T02:00:30;6.70;99.90
1083;DHT22;530;51.448;7.238;2024-03-07T02:02:56;6.70;99.90
1083;DHT22;530;51.448;7.238;2024-03-07T02:05:22;6.70;99.90
1083;DHT22;530;51.448;7.238;2024-03-07T02:07:49;6.60;99.90
1083;DHT22;530;51.448;7.238;2024-03-07T02:10:15;6.60;99.90
1083;DHT22;530;51.448;7.238;2024-03-07T02:12:42;6.60;99.90
1083;DHT22;530;51.448;7.238;2024-03-07T02:15:08;6.60;99.90
1083;DHT22;530;51.448;7.238;2024-03-07T02:17:34;6.60;99.90
1083;DHT22;530;51.448;7.238;2024-03-07T02:20:01;6.50;99.90
1083;DHT22;530;51.448;7.238;2024-03-07T02:22:26;6.50;99.90
1083;DHT22;530;51.448;7.238;2024-03-07T02:24:52;6.50;99.90
1083;DHT22;530;51.448;7.238;2024-03-07T02:27:18;6.50;99.90
1083;DHT22;530;51.448;7.238;2024-03-07T02:29:44;6.50;99.90
1083;DHT22;530;51.448;7.238;2024-03-07T02:32:10;6.50;99.90
1083;DHT22;530;51.448;7.238;2024-03-07T02:34:37;6.50;99.90
1083;DHT22;530;51.448;7.238;2024-03-07T02:37:02;6.40;99.90
1083;DHT22;530;51.448;7.238;2024-03-07T02:39:28;6.40;99.90
1083;DHT22;530;51.448;7.238;2024-03-07T02:41:54;6.40;99.90
1083;DHT22;530;51.448;7.238;2024-03-07T02:44:20;6.30;99.90
1083;DHT22;530;51.448;7.238;2024-03-07T02:46:45;6.30;99.90
1083;DHT22;530;51.448;7.238;2024-03-07T02:49:13;6.30;99.90
1083;DHT22;530;51.448;7.238;2024-03-07T02:51:40;6.30;99.90
1083;DHT22;530;51.448;7.238;2024-03-07T02:54:08;6.30;99.90
1083;DHT22;530;51.448;7.238;2024-03-07T02:56:33;6.20;99.90
1083;DHT22;530;51.448;7.238;2024-03-07T02:58:59;6.20;99.90
1083;DHT22;530;51.448;7.238;2024-03-07T03:01:25;6.10;99.90
1083;DHT22;530;51.448;7.238;2024-03-07T03:03:51;6.10;99.90
1083;DHT22;530;51.448;7.238;2024-03-07T03:06:17;6.10;99.90
1083;DHT22;530;51.448;7.238;2024-03-07T03:08:46;6.10;99.90
1083;DHT22;530;51.448;7.238;2024-03-07T03:11:12;6.10;99.90
1083;DHT22;530;51.448;7.238;2024-03-07T03:13:42;6.10;99.90
1083;DHT22;530;51.448;7.238;2024-03-07T03:16:09;6.10;99.90
1083;DHT22;530;51.448;7.238;2024-03-07T03:18:35;6.00;99.90
1083;DHT22;530;51.448;7.238;2024-03-07T03:21:02;6.00;99.90
1083;DHT22;530;51.448;7.238;2024-03-07T03:23:28;6.00;99.90
1083;DHT22;530;51.448;7.238;2024-03-07T03:25:54;6.00;99.90
1083;DHT22;530;51.448;7.238;2024-03-07T03:28:21;6.00;99.90
1083;DHT22;530;51.448;7.238;2024-03-07T03:30:48;6.00;99.90
1083;DHT22;530;51.448;7.238;2024-03-07T03:33:14;6.00;99.90
1083;DHT22;530;51.448;7.238;2024-03-07T03:35:41;6.00;99.90
1083;DHT22;530;51.448;7.238;2024-03-07T03:38:07;5.90;99.90
1083;DHT22;530;51.448;7.238;2024-03-07T03:40:33;5.90;99.90
1083;DHT22;530;51.448;7.238;2024-03-07T03:42:59;5.90;99.90
1083;DHT22;530;51.448;7.238;2024-03-07T03:45:26;5.90;99.90
1083;DHT22;530;51.448;7.238;2024-03-07T03:47:52;5.90;99.90
1083;DHT22;530;51.448;7.238;2024-03-07T03:50:18;5.90;99.90
1083;DHT22;530;51.448;7.238;2024-03-07T03:52:44;5.90;99.90
1083;DHT22;530;51.448;7.238;2024-03-07T03:55:10;5.90;99.90
1083;DHT22;530;51.448;7.238;2024-03-07T03:57:41;5.80;99.90
1083;DHT22;530;51.448;7.238;2024-03-07T04:00:08;5.80;99.90
1083;DHT22;530;51.448;7.238;2024-03-07T04:02:44;5.70;99.90
1083;DHT22;530;51.448;7.238;2024-03-07T04:05:13;5.70;99.90
1083;DHT22;530;51.448;7.238;2024-03-07T04:07:40;5.80;99.90
1083;DHT22;530;51.448;7.238;2024-03-07T04:10:08;5.70;99.90
1083;DHT22;530;51.448;7.238;2024-03-07T04:12:39;5.70;99.90
1083;DHT22;530;51.448;7.238;2024-03-07T04:15:06;5.70;99.90
1083;DHT22;530;51.448;7.238;2024-03-07T04:17:35;5.70;99.90
1083;DHT22;530;51.448;7.238;2024-03-07T04:20:03;5.70;99.90
1083;DHT22;530;51.448;7.238;2024-03-07T04:22:35;5.60;99.90
1083;DHT22;530;51.448;7.238;2024-03-07T04:25:02;5.60;99.90
1083;DHT22;530;51.448;7.238;2024-03-07T04:27:27;5.60;99.90
1083;DHT22;530;51.448;7.238;2024-03-07T04:29:54;5.60;99.90
1083;DHT22;530;51.448;7.238;2024-03-07T04:32:21;5.50;99.90
1083;DHT22;530;51.448;7.238;2024-03-07T04:34:47;5.50;99.90
1083;DHT22;530;51.448;7.238;2024-03-07T04:37:12;5.50;99.90
1083;DHT22;530;51.448;7.238;2024-03-07T04:39:39;5.50;99.90
1083;DHT22;530;51.448;7.238;2024-03-07T04:42:06;5.50;99.90
1083;DHT22;530;51.448;7.238;2024-03-07T04:44:32;5.40;99.90
1083;DHT22;530;51.448;7.238;2024-03-07T04:46:59;5.40;99.90
1083;DHT22;530;51.448;7.238;2024-03-07T04:49:27;5.40;99.90
1083;DHT22;530;51.448;7.238;2024-03-07T04:51:55;5.40;99.90
1083;DHT22;530;51.448;7.238;2024-03-07T04:54:22;5.40;99.90
1083;DHT22;530;51.448;7.238;2024-03-07T04:56:49;5.40;99.90
1083;DHT22;530;51.448;7.238;2024-03-07T04:59:15;5.40;99.90
1083;DHT22;530;51.448;7.238;2024-03-07T05:01:43;5.40;99.90
1083;DHT22;530;51.448;7.238;2024-03-07T05:04:09;5.40;99.90
1083;DHT22;530;51.448;7.238;2024-03-07T05:06:35;5.50;99.90
1083;DHT22;530;51.448;7.238;2024-03-07T05:09:02;5.50;99.90
1083;DHT22;530;51.448;7.238;2024-03-07T05:11:29;5.50;99.90
1083;DHT22;530;51.448;7.238;2024-03-07T05:13:55;5.60;99.90
1083;DHT22;530;51.448;7.238;2024-03-07T05:16:21;5.60;99.90
1083;DHT22;530;51.448;7.238;2024-03-07T05:18:46;5.50;99.90
1083;DHT22;530;51.448;7.238;2024-03-07T05:21:12;5.60;99.90
1083;DHT22;530;51.448;7.238;2024-03-07T05:23:57;5.60;99.90
1083;DHT22;530;51.448;7.238;2024-03-07T05:26:23;5.60;99.90
1083;DHT22;530;51.448;7.238;2024-03-07T05:28:49;5.60;99.90
1083;DHT22;530;51.448;7.238;2024-03-07T05:31:15;5.60;99.90
1083;DHT22;530;51.448;7.238;2024-03-07T05:33:43;5.50;99.90
1083;DHT22;530;51.448;7.238;2024-03-07T05:36:09;5.60;99.90
1083;DHT22;530;51.448;7.238;2024-03-07T05:38:42;5.50;99.90
1083;DHT22;530;51.448;7.238;2024-03-07T05:41:11;5.50;99.90
1083;DHT22;530;51.448;7.238;2024-03-07T05:43:38;5.50;99.90
1083;DHT22;530;51.448;7.238;2024-03-07T05:46:04;5.50;99.90
1083;DHT22;530;51.448;7.238;2024-03-07T05:48:33;5.50;99.90
1083;DHT22;530;51.448;7.238;2024-03-07T05:50:59;5.50;99.90
1083;DHT22;530;51.448;7.238;2024-03-07T05:53:25;5.50;99.90
1083;DHT22;530;51.448;7.238;2024-03-07T05:55:51;5.50;99.90
1083;DHT22;530;51.448;7.238;2024-03-07T05:58:16;5.40;99.90
1083;DHT22;530;51.448;7.238;2024-03-07T06:00:51;5.40;99.90
1083;DHT22;530;51.448;7.238;2024-03-07T06:03:20;5.40;99.90
1083;DHT22;530;51.448;7.238;2024-03-07T06:05:49;5.30;99.90
1083;DHT22;530;51.448;7.238;2024-03-07T06:08:19;5.30;99.90
1083;DHT22;530;51.448;7.238;2024-03-07T06:10:45;5.30;99.90
1083;DHT22;530;51.448;7.238;2024-03-07T06:13:13;5.30;99.90
1083;DHT22;530;51.448;7.238;2024-03-07T06:15:39;5.20;99.90
1083;DHT22;530;51.448;7.238;2024-03-07T06:18:05;5.20;99.90
1083;DHT22;530;51.448;7.238;2024-03-07T06:20:33;5.10;99.90
1083;DHT22;530;51.448;7.238;2024-03-07T06:23:00;5.00;99.90
1083;DHT22;530;51.448;7.238;2024-03-07T06:25:29;5.00;99.90
1083;DHT22;530;51.448;7.238;2024-03-07T06:28:16;5.00;99.90
1083;DHT22;530;51.448;7.238;2024-03-07T06:30:44;4.90;99.90
1083;DHT22;530;51.448;7.238;2024-03-07T06:33:11;4.90;99.90
1083;DHT22;530;51.448;7.238;2024-03-07T06:35:37;4.90;99.90
1083;DHT22;530;51.448;7.238;2024-03-07T06:38:08;4.80;99.90
1083;DHT22;530;51.448;7.238;2024-03-07T06:40:34;4.80;99.90
1083;DHT22;530;51.448;7.238;2024-03-07T06:43:00;4.80;99.90
1083;DHT22;530;51.448;7.238;2024-03-07T06:45:29;4.80;99.90
1083;DHT22;530;51.448;7.238;2024-03-07T06:47:55;4.70;99.90
1083;DHT22;530;51.448;7.238;2024-03-07T06:50:20;4.70;99.90
1083;DHT22;530;51.448;7.238;2024-03-07T06:52:47;4.70;99.90
1083;DHT22;530;51.448;7.238;2024-03-07T06:55:16;4.70;99.90
1083;DHT22;530;51.448;7.238;2024-03-07T06:57:43;4.80;99.90
1083;DHT22;530;51.448;7.238;2024-03-07T07:00:12;4.70;99.90
1083;DHT22;530;51.448;7.238;2024-03-07T07:02:40;4.90;99.90
1083;DHT22;530;51.448;7.238;2024-03-07T07:05:09;4.90;99.90
1083;DHT22;530;51.448;7.238;2024-03-07T07:07:41;5.00;99.90
1083;DHT22;530;51.448;7.238;2024-03-07T07:10:10;5.00;99.90
1083;DHT22;530;51.448;7.238;2024-03-07T07:12:49;5.10;99.90
1083;DHT22;530;51.448;7.238;2024-03-07T07:15:17;5.10;99.90
1083;DHT22;530;51.448;7.238;2024-03-07T07:17:44;5.20;99.90
1083;DHT22;530;51.448;7.238;2024-03-07T07:20:17;5.20;99.90
1083;DHT22;530;51.448;7.238;2024-03-07T07:22:45;5.30;99.90
1083;DHT22;530;51.448;7.238;2024-03-07T07:25:12;5.30;99.90
1083;DHT22;530;51.448;7.238;2024-03-07T07:27:51;5.40;99.90
1083;DHT22;530;51.448;7.238;2024-03-07T07:30:18;5.50;99.90
1083;DHT22;530;51.448;7.238;2024-03-07T07:32:45;5.60;99.90
1083;DHT22;530;51.448;7.238;2024-03-07T07:35:11;5.60;99.90
1083;DHT22;530;51.448;7.238;2024-03-07T07:37:47;5.80;99.90
1083;DHT22;530;51.448;7.238;2024-03-07T07:40:15;5.80;99.90
1083;DHT22;530;51.448;7.238;2024-03-07T07:42:47;5.90;99.90
1083;DHT22;530;51.448;7.238;2024-03-07T07:45:14;6.10;99.90
1083;DHT22;530;51.448;7.238;2024-03-07T07:47:41;6.10;99.90
1083;DHT22;530;51.448;7.238;2024-03-07T07:50:14;6.30;99.90
1083;DHT22;530;51.448;7.238;2024-03-07T07:52:43;6.30;99.90
1083;DHT22;530;51.448;7.238;2024-03-07T07:55:10;6.30;99.90
1083;DHT22;530;51.448;7.238;2024-03-07T07:57:48;6.40;99.90
1083;DHT22;530;51.448;7.238;2024-03-07T08:00:15;6.50;99.90
1083;DHT22;530;51.448;7.238;2024-03-07T08:03:01;6.70;99.90
1083;DHT22;530;51.448;7.238;2024-03-07T08:05:29;6.90;99.90
1083;DHT22;530;51.448;7.238;2024-03-07T08:07:56;7.00;99.90
1083;DHT22;530;51.448;7.238;2024-03-07T08:10:25;7.20;99.90
1083;DHT22;530;51.448;7.238;2024-03-07T08:12:51;7.40;99.90
1083;DHT22;530;51.448;7.238;2024-03-07T08:15:18;7.50;99.90
1083;DHT22;530;51.448;7.238;2024-03-07T08:17:45;7.60;99.90
1083;DHT22;530;51.448;7.238;2024-03-07T08:20:16;7.80;99.90
1083;DHT22;530;51.448;7.238;2024-03-07T08:22:44;7.90;99.90
1083;DHT22;530;51.448;7.238;2024-03-07T08:25:11;7.90;99.90
1083;DHT22;530;51.448;7.238;2024-03-07T08:27:42;8.00;99.90
1083;DHT22;530;51.448;7.238;2024-03-07T08:30:10;8.00;99.90
1083;DHT22;530;51.448;7.238;2024-03-07T08:32:40;8.00;99.90
1083;DHT22;530;51.448;7.238;2024-03-07T08:35:07;7.90;99.90
1083;DHT22;530;51.448;7.238;2024-03-07T08:37:42;7.80;99.90
1083;DHT22;530;51.448;7.238;2024-03-07T08:40:09;7.80;99.90
1083;DHT22;530;51.448;7.238;2024-03-07T08:42:45;7.80;99.90
1083;DHT22;530;51.448;7.238;2024-03-07T08:45:11;7.70;99.90
1083;DHT22;530;51.448;7.238;2024-03-07T08:47:37;7.70;99.90
1083;DHT22;530;51.448;7.238;2024-03-07T08:50:04;7.70;99.90
1083;DHT22;530;51.448;7.238;2024-03-07T08:52:36;7.70;99.90
1083;DHT22;530;51.448;7.238;2024-03-07T08:55:03;7.70;99.90
1083;DHT22;530;51.448;7.238;2024-03-07T08:57:29;7.60;99.90
1083;DHT22;530;51.448;7.238;2024-03-07T08:59:56;7.60;99.90
1083;DHT22;530;51.448;7.238;2024-03-07T09:02:22;7.50;99.90
1083;DHT22;530;51.448;7.238;2024-03-07T09:04:48;7.60;99.90
1083;DHT22;530;51.448;7.238;2024-03-07T09:07:14;7.50;99.90
1083;DHT22;530;51.448;7.238;2024-03-07T09:09:43;7.50;99.90
1083;DHT22;530;51.448;7.238;2024-03-07T09:12:10;7.50;99.90
1083;DHT22;530;51.448;7.238;2024-03-07T09:14:36;7.60;99.90
1083;DHT22;530;51.448;7.238;2024-03-07T09:17:03;7.50;99.90
1083;DHT22;530;51.448;7.238;2024-03-07T09:19:30;7.50;99.90
1083;DHT22;530;51.448;7.238;2024-03-07T09:21:56;7.60;99.90
1083;DHT22;530;51.448;7.238;2024-03-07T09:24:22;7.60;99.90
1083;DHT22;530;51.448;7.238;2024-03-07T09:26:51;7.70;99.90
1083;DHT22;530;51.448;7.238;2024-03-07T09:29:18;7.70;99.90
1083;DHT22;530;51.448;7.238;2024-03-07T09:31:45;7.70;99.90
1083;DHT22;530;51.448;7.238;2024-03-07T09:34:12;7.80;99.90
1083;DHT22;530;51.448;7.238;2024-03-07T09:36:38;7.90;99.90
1083;DHT22;530;51.448;7.238;2024-03-07T09:39:07;8.00;99.90
1083;DHT22;530;51.448;7.238;2024-03-07T09:41:34;8.10;99.90
1083;DHT22;530;51.448;7.238;2024-03-07T09:44:00;8.10;99.90
1083;DHT22;530;51.448;7.238;2024-03-07T09:46:26;8.10;99.90
1083;DHT22;530;51.448;7.238;2024-03-07T09:48:53;8.20;99.90
1083;DHT22;530;51.448;7.238;2024-03-07T09:51:23;8.20;99.90
1083;DHT22;530;51.448;7.238;2024-03-07T09:53:50;8.20;99.90
1083;DHT22;530;51.448;7.238;2024-03-07T09:56:20;8.30;99.90
1083;DHT22;530;51.448;7.238;2024-03-07T09:58:50;8.40;99.90
1083;DHT22;530;51.448;7.238;2024-03-07T10:01:20;8.50;99.90
1083;DHT22;530;51.448;7.238;2024-03-07T10:03:47;8.50;99.90
1083;DHT22;530;51.448;7.238;2024-03-07T10:06:13;8.60;99.90
1083;DHT22;530;51.448;7.238;2024-03-07T10:08:42;8.60;99.90
1083;DHT22;530;51.448;7.238;2024-03-07T10:11:08;8.70;99.90
1083;DHT22;530;51.448;7.238;2024-03-07T10:13:34;8.70;99.90
1083;DHT22;530;51.448;7.238;2024-03-07T10:16:03;8.80;99.90
1083;DHT22;530;51.448;7.238;2024-03-07T10:18:31;8.80;99.90
1083;DHT22;530;51.448;7.238;2024-03-07T10:20:57;8.80;99.90
1083;DHT22;530;51.448;7.238;2024-03-07T10:23:23;8.90;99.90
1083;DHT22;530;51.448;7.238;2024-03-07T10:25:50;8.90;99.90
1083;DHT22;530;51.448;7.238;2024-03-07T10:28:16;9.00;99.90
1083;DHT22;530;51.448;7.238;2024-03-07T10:30:43;9.00;99.90
1083;DHT22;530;51.448;7.238;2024-03-07T10:33:13;9.10;99.90
1083;DHT22;530;51.448;7.238;2024-03-07T10:35:39;9.20;99.90
1083;DHT22;530;51.448;7.238;2024-03-07T10:38:04;9.30;99.90
1083;DHT22;530;51.448;7.238;2024-03-07T10:40:33;9.50;99.90
1083;DHT22;530;51.448;7.238;2024-03-07T10:43:09;9.70;99.90
1083;DHT22;530;51.448;7.238;2024-03-07T10:45:45;9.80;99.90
1083;DHT22;530;51.448;7.238;2024-03-07T10:48:12;9.90;99.90
1083;DHT22;530;51.448;7.238;2024-03-07T10:59:17;10.20;99.90
1083;DHT22;530;51.448;7.238;2024-03-07T11:02:10;10.30;99.90
1083;DHT22;530;51.448;7.238;2024-03-07T11:04:41;10.50;99.90
1083;DHT22;530;51.448;7.238;2024-03-07T11:07:08;10.70;99.90
1083;DHT22;530;51.448;7.238;2024-03-07T11:09:36;10.90;99.90
1083;DHT22;530;51.448;7.238;2024-03-07T11:12:03;11.00;99.90
1083;DHT22;530;51.448;7.238;2024-03-07T11:14:30;11.10;99.90
1083;DHT22;530;51.448;7.238;2024-03-07T11:16:57;11.30;99.90
1083;DHT22;530;51.448;7.238;2024-03-07T11:19:28;11.40;99.90
1083;DHT22;530;51.448;7.238;2024-03-07T11:21:56;11.50;99.90
1083;DHT22;530;51.448;7.238;2024-03-07T11:24:29;11.70;99.90
1083;DHT22;530;51.448;7.238;2024-03-07T11:26:56;11.80;99.90
1083;DHT22;530;51.448;7.238;2024-03-07T11:29:49;11.90;99.90
1083;DHT22;530;51.448;7.238;2024-03-07T11:32:22;12.00;99.90
1083;DHT22;530;51.448;7.238;2024-03-07T11:34:48;12.00;99.90
1083;DHT22;530;51.448;7.238;2024-03-07T11:37:38;12.10;99.90
1083;DHT22;530;51.448;7.238;2024-03-07T11:40:12;12.10;99.90
1083;DHT22;530;51.448;7.238;2024-03-07T11:42:47;12.10;99.90
1083;DHT22;530;51.448;7.238;2024-03-07T11:45:14;12.20;99.90
1083;DHT22;530;51.448;7.238;2024-03-07T11:47:51;12.30;99.90
1083;DHT22;530;51.448;7.238;2024-03-07T11:50:24;12.30;99.90
1083;DHT22;530;51.448;7.238;2024-03-07T11:52:52;12.50;99.90
1083;DHT22;530;51.448;7.238;2024-03-07T11:55:23;12.60;99.90
1083;DHT22;530;51.448;7.238;2024-03-07T11:57:52;12.80;99.90
1083;DHT22;530;51.448;7.238;2024-03-07T12:00:19;12.80;99.90
1083;DHT22;530;51.448;7.238;2024-03-07T12:02:45;12.80;99.90
1083;DHT22;530;51.448;7.238;2024-03-07T12:05:13;12.80;99.90
1083;DHT22;530;51.448;7.238;2024-03-07T12:07:41;12.60;99.90
1083;DHT22;530;51.448;7.238;2024-03-07T12:10:09;12.40;99.90
1083;DHT22;530;51.448;7.238;2024-03-07T12:12:36;12.20;99.90
1083;DHT22;530;51.448;7.238;2024-03-07T12:15:08;12.00;99.90
1083;DHT22;530;51.448;7.238;2024-03-07T12:17:47;11.90;99.90
1083;DHT22;530;51.448;7.238;2024-03-07T12:20:18;11.70;99.90
1083;DHT22;530;51.448;7.238;2024-03-07T12:22:51;11.60;99.90
1083;DHT22;530;51.448;7.238;2024-03-07T12:25:18;11.50;99.90
1083;DHT22;530;51.448;7.238;2024-03-07T12:27:58;11.50;99.90
1083;DHT22;530;51.448;7.238;2024-03-07T12:30:26;11.50;99.90
1083;DHT22;530;51.448;7.238;2024-03-07T12:32:53;11.30;99.90
1083;DHT22;530;51.448;7.238;2024-03-07T12:35:19;11.30;99.90
1083;DHT22;530;51.448;7.238;2024-03-07T12:37:45;11.20;99.90
1083;DHT22;530;51.448;7.238;2024-03-07T12:40:14;11.10;99.90
1083;DHT22;530;51.448;7.238;2024-03-07T12:42:48;11.00;99.90
1083;DHT22;530;51.448;7.238;2024-03-07T12:45:16;10.90;99.90
1083;DHT22;530;51.448;7.238;2024-03-07T12:47:52;10.90;99.90
1083;DHT22;530;51.448;7.238;2024-03-07T12:50:20;10.80;99.90
1083;DHT22;530;51.448;7.238;2024-03-07T12:52:47;10.80;99.90
1083;DHT22;530;51.448;7.238;2024-03-07T12:55:17;10.90;99.90
1083;DHT22;530;51.448;7.238;2024-03-07T12:57:49;11.00;99.90
1083;DHT22;530;51.448;7.238;2024-03-07T13:00:16;11.00;99.90
1083;DHT22;530;51.448;7.238;2024-03-07T13:02:46;11.00;99.90
1083;DHT22;530;51.448;7.238;2024-03-07T13:05:12;11.00;99.90
1083;DHT22;530;51.448;7.238;2024-03-07T13:07:47;10.90;99.90
1083;DHT22;530;51.448;7.238;2024-03-07T13:10:14;10.90;99.90
1083;DHT22;530;51.448;7.238;2024-03-07T13:12:45;10.80;99.90
1083;DHT22;530;51.448;7.238;2024-03-07T13:15:12;10.70;99.90
1083;DHT22;530;51.448;7.238;2024-03-07T13:17:38;10.70;99.90
1083;DHT22;530;51.448;7.238;2024-03-07T13:20:04;10.60;99.90
1083;DHT22;530;51.448;7.238;2024-03-07T13:22:45;10.40;99.90
1083;DHT22;530;51.448;7.238;2024-03-07T13:25:20;10.40;99.90
1083;DHT22;530;51.448;7.238;2024-03-07T13:30:25;10.20;99.90
1083;DHT22;530;51.448;7.238;2024-03-07T13:32:58;10.20;99.90
1083;DHT22;530;51.448;7.238;2024-03-07T13:35:24;10.20;99.90
1083;DHT22;530;51.448;7.238;2024-03-07T13:37:54;10.20;99.90
1083;DHT22;530;51.448;7.238;2024-03-07T13:40:26;10.20;99.90
1083;DHT22;530;51.448;7.238;2024-03-07T13:42:54;10.20;99.90
1083;DHT22;530;51.448;7.238;2024-03-07T13:45:26;10.20;99.90
1083;DHT22;530;51.448;7.238;2024-03-07T13:47:55;10.10;99.90
1083;DHT22;530;51.448;7.238;2024-03-07T13:50:24;10.10;99.90
1083;DHT22;530;51.448;7.238;2024-03-07T13:52:52;10.10;99.90
1083;DHT22;530;51.448;7.238;2024-03-07T13:59:26;10.10;99.90
1083;DHT22;530;51.448;7.238;2024-03-07T14:01:28;10.10;99.90
1083;DHT22;530;51.448;7.238;2024-03-07T14:04:21;10.10;99.90
1083;DHT22;530;51.448;7.238;2024-03-07T14:13:22;10.00;99.90
1083;DHT22;530;51.448;7.238;2024-03-07T14:32:52;10.00;99.90
1083;DHT22;530;51.448;7.238;2024-03-07T14:35:25;9.90;99.90
1083;DHT22;530;51.448;7.238;2024-03-07T14:40:39;10.10;99.90
1083;DHT22;530;51.448;7.238;2024-03-07T14:43:05;10.20;99.90
1083;DHT22;530;51.448;7.238;2024-03-07T14:45:40;10.20;99.90
1083;DHT22;530;51.448;7.238;2024-03-07T14:48:06;10.20;99.90
1083;DHT22;530;51.448;7.238;2024-03-07T14:50:36;10.20;99.90
1083;DHT22;530;51.448;7.238;2024-03-07T14:53:03;10.10;99.90
1083;DHT22;530;51.448;7.238;2024-03-07T14:55:30;10.20;99.90
1083;DHT22;530;51.448;7.238;2024-03-07T14:57:57;10.10;99.90
1083;DHT22;530;51.448;7.238;2024-03-07T15:00:24;10.00;99.90
1083;DHT22;530;51.448;7.238;2024-03-07T15:02:53;9.90;99.90
1083;DHT22;530;51.448;7.238;2024-03-07T15:05:23;9.90;99.90
1083;DHT22;530;51.448;7.238;2024-03-07T15:07:53;9.90;99.90
1083;DHT22;530;51.448;7.238;2024-03-07T15:10:26;9.90;99.90
1083;DHT22;530;51.448;7.238;2024-03-07T15:12:52;9.90;99.90
1083;DHT22;530;51.448;7.238;2024-03-07T15:15:18;9.90;99.90
1083;DHT22;530;51.448;7.238;2024-03-07T15:17:46;9.90;99.90
1083;DHT22;530;51.448;7.238;2024-03-07T15:20:12;9.90;99.90
1083;DHT22;530;51.448;7.238;2024-03-07T15:22:57;9.90;99.90
1083;DHT22;530;51.448;7.238;2024-03-07T15:25:25;9.90;99.90
1083;DHT22;530;51.448;7.238;2024-03-07T15:27:55;9.90;99.90
1083;DHT22;530;51.448;7.238;2024-03-07T15:30:27;9.90;99.90
1083;DHT22;530;51.448;7.238;2024-03-07T15:33:02;9.90;99.90
1083;DHT22;530;51.448;7.238;2024-03-07T15:35:29;9.90;99.90
1083;DHT22;530;51.448;7.238;2024-03-07T15:37:56;9.90;99.90
1083;DHT22;530;51.448;7.238;2024-03-07T15:40:22;9.90;99.90
1083;DHT22;530;51.448;7.238;2024-03-07T15:42:49;9.90;99.90
1083;DHT22;530;51.448;7.238;2024-03-07T15:45:20;9.90;99.90
1083;DHT22;530;51.448;7.238;2024-03-07T15:47:51;9.90;99.90
1083;DHT22;530;51.448;7.238;2024-03-07T15:50:18;9.80;99.90
1083;DHT22;530;51.448;7.238;2024-03-07T15:52:48;9.80;99.90
1083;DHT22;530;51.448;7.238;2024-03-07T15:55:17;9.70;99.90
1083;DHT22;530;51.448;7.238;2024-03-07T15:57:45;9.80;99.90
1083;DHT22;530;51.448;7.238;2024-03-07T16:00:16;9.70;99.90
1083;DHT22;530;51.448;7.238;2024-03-07T16:02:57;9.80;99.90
1083;DHT22;530;51.448;7.238;2024-03-07T16:05:24;9.70;99.90
1083;DHT22;530;51.448;7.238;2024-03-07T16:07:54;9.70;99.90
1083;DHT22;530;51.448;7.238;2024-03-07T16:10:22;9.80;99.90
1083;DHT22;530;51.448;7.238;2024-03-07T16:12:53;9.70;99.90
1083;DHT22;530;51.448;7.238;2024-03-07T16:15:25;9.70;99.90
1083;DHT22;530;51.448;7.238;2024-03-07T16:17:55;9.70;99.90
1083;DHT22;530;51.448;7.238;2024-03-07T16:20:28;9.70;99.90
1083;DHT22;530;51.448;7.238;2024-03-07T16:22:54;9.80;99.90
1083;DHT22;530;51.448;7.238;2024-03-07T16:25:21;9.70;99.90
1083;DHT22;530;51.448;7.238;2024-03-07T16:27:48;9.80;99.90
1083;DHT22;530;51.448;7.238;2024-03-07T16:30:19;9.80;99.90
1083;DHT22;530;51.448;7.238;2024-03-07T16:32:49;9.80;99.90
1083;DHT22;530;51.448;7.238;2024-03-07T16:35:17;9.80;99.90
1083;DHT22;530;51.448;7.238;2024-03-07T16:37:43;9.70;99.90
1083;DHT22;530;51.448;7.238;2024-03-07T16:40:19;9.70;99.90
1083;DHT22;530;51.448;7.238;2024-03-07T16:42:50;9.70;99.90
1083;DHT22;530;51.448;7.238;2024-03-07T16:45:20;9.70;99.90
1083;DHT22;530;51.448;7.238;2024-03-07T16:47:50;9.70;99.90
1083;DHT22;530;51.448;7.238;2024-03-07T16:50:20;9.70;99.90
1083;DHT22;530;51.448;7.238;2024-03-07T16:52:47;9.70;99.90
1083;DHT22;530;51.448;7.238;2024-03-07T16:55:14;9.70;99.90
1083;DHT22;530;51.448;7.238;2024-03-07T16:57:41;9.60;99.90
1083;DHT22;530;51.448;7.238;2024-03-07T17:00:08;9.60;99.90
1083;DHT22;530;51.448;7.238;2024-03-07T17:03:00;9.60;99.90
1083;DHT22;530;51.448;7.238;2024-03-07T17:05:36;9.60;99.90
1083;DHT22;530;51.448;7.238;2024-03-07T17:08:07;9.50;99.90
1083;DHT22;530;51.448;7.238;2024-03-07T17:10:35;9.50;99.90
1083;DHT22;530;51.448;7.238;2024-03-07T17:13:02;9.50;99.90
1083;DHT22;530;51.448;7.238;2024-03-07T17:15:28;9.50;99.90
1083;DHT22;530;51.448;7.238;2024-03-07T17:17:56;9.50;99.90
1083;DHT22;530;51.448;7.238;2024-03-07T17:20:24;9.50;99.90